sensor_id;sensor_type;location;lat;lon;timestamp;temperature;humidity
12634;DHT22;6382;48.614;8.880;2024-03-02T00:00:36;4.20;99.90
12634;DHT22;6382;48.614;8.880;2024-03-02T00:03:02;4.20;99.90
12634;DHT22;6382;48.614;8.880;2024-03-02T00:05:28;4.20;99.90
12634;DHT22;6382;48.614;8.880;2024-03-02T00:07:57;4.20;99.90
12634;DHT22;6382;48.614;8.880;2024-03-02T00:10:26;4.10;99.90
12634;DHT22;6382;48.614;8.880;2024-03-02T00:12:56;4.10;99.90
12634;DHT22;6382;48.614;8.880;2024-03-02T00:17:53;4.00;99.90
12634;DHT22;6382;48.614;8.880;2024-03-02T00:20:21;4.00;99.90
12634;DHT22;6382;48.614;8.880;2024-03-02T00:22:47;4.10;99.90
12634;DHT22;6382;48.614;8.880;2024-03-02T00:25:12;4.20;99.90
12634;DHT22;6382;48.614;8.880;2024-03-02T00:27:38;4.20;99.90
12634;DHT22;6382;48.614;8.880;2024-03-02T00:30:46;4.40;99.90
12634;DHT22;6382;48.614;8.880;2024-03-02T00:32:52;4.40;99.90
12634;DHT22;6382;48.614;8.880;2024-03-02T00:35:18;4.40;99.90
12634;DHT22;6382;48.614;8.880;2024-03-02T00:37:45;4.40;99.90
12634;DHT22;6382;48.614;8.880;2024-03-02T00:40:11;4.50;99.90
12634;DHT22;6382;48.614;8.880;2024-03-02T00:42:38;4.50;99.90
12634;DHT22;6382;48.614;8.880;2024-03-02T00:45:07;5.50;99.90
12634;DHT22;6382;48.614;8.880;2024-03-02T00:47:37;4.50;99.90
12634;DHT22;6382;48.614;8.880;2024-03-02T00:50:03;4.60;99.90
12634;DHT22;6382;48.614;8.880;2024-03-02T00:52:29;4.60;99.90
12634;DHT22;6382;48.614;8.880;2024-03-02T00:54:56;4.60;99.90
12634;DHT22;6382;48.614;8.880;2024-03-02T00:57:22;4.70;99.90
12634;DHT22;6382;48.614;8.880;2024-03-02T00:59:51;4.60;99.90
12634;DHT22;6382;48.614;8.880;2024-03-02T01:02:17;4.60;99.90
12634;DHT22;6382;48.614;8.880;2024-03-02T01:04:42;4.70;99.90
12634;DHT22;6382;48.614;8.880;2024-03-02T01:07:08;4.70;99.90
12634;DHT22;6382;48.614;8.880;2024-03-02T01:09:33;4.70;99.90
12634;DHT22;6382;48.614;8.880;2024-03-02T01:11:58;4.70;99.90
12634;DHT22;6382;48.614;8.880;2024-03-02T01:14:24;4.70;99.90
12634;DHT22;6382;48.614;8.880;2024-03-02T01:16:49;4.60;99.90
12634;DHT22;6382;48.614;8.880;2024-03-02T01:19:15;4.60;99.90
12634;DHT22;6382;48.614;8.880;2024-03-02T01:21:40;4.60;99.90
12634;DHT22;6382;48.614;8.880;2024-03-02T01:24:06;4.60;99.90
12634;DHT22;6382;48.614;8.880;2024-03-02T01:26:31;4.50;99.90
12634;DHT22;6382;48.614;8.880;2024-03-02T01:28:57;4.50;99.90
12634;DHT22;6382;48.614;8.880;2024-03-02T01:31:22;4.40;99.90
12634;DHT22;6382;48.614;8.880;2024-03-02T01:33:48;4.40;99.90
12634;DHT22;6382;48.614;8.880;2024-03-02T01:36:14;4.40;99.90
12634;DHT22;6382;48.614;8.880;2024-03-02T01:38:39;4.40;99.90
12634;DHT22;6382;48.614;8.880;2024-03-02T01:41:05;4.40;99.90
12634;DHT22;6382;48.614;8.880;2024-03-02T01:43:30;4.40;99.90
12634;DHT22;6382;48.614;8.880;2024-03-02T01:45:56;4.30;99.90
12634;DHT22;6382;48.614;8.880;2024-03-02T01:48:22;4.30;99.90
12634;DHT22;6382;48.614;8.880;2024-03-02T01:50:47;4.30;99.90
12634;DHT22;6382;48.614;8.880;2024-03-02T01:53:13;4.30;99.90
12634;DHT22;6382;48.614;8.880;2024-03-02T01:55:38;4.20;99.90
12634;DHT22;6382;48.614;8.880;2024-03-02T01:58:03;4.10;99.90
12634;DHT22;6382;48.614;8.880;2024-03-02T02:00:31;5.30;99.90
12634;DHT22;6382;48.614;8.880;2024-03-02T02:02:57;4.10;99.90
12634;DHT22;6382;48.614;8.880;2024-03-02T02:05:23;4.10;99.90
12634;DHT22;6382;48.614;8.880;2024-03-02T02:07:48;4.10;99.90
12634;DHT22;6382;48.614;8.880;2024-03-02T02:10:14;4.10;99.90
12634;DHT22;6382;48.614;8.880;2024-03-02T02:12:39;4.20;99.90
12634;DHT22;6382;48.614;8.880;2024-03-02T02:15:24;4.20;99.90
12634;DHT22;6382;48.614;8.880;2024-03-02T02:17:49;4.20;99.90
12634;DHT22;6382;48.614;8.880;2024-03-02T02:20:15;4.10;99.90
12634;DHT22;6382;48.614;8.880;2024-03-02T02:22:40;4.10;99.90
12634;DHT22;6382;48.614;8.880;2024-03-02T02:25:06;3.90;99.90
12634;DHT22;6382;48.614;8.880;2024-03-02T02:27:31;3.90;99.90
12634;DHT22;6382;48.614;8.880;2024-03-02T02:29:57;3.70;99.90
12634;DHT22;6382;48.614;8.880;2024-03-02T02:32:22;3.60;99.90
12634;DHT22;6382;48.614;8.880;2024-03-02T02:34:51;3.60;99.90
12634;DHT22;6382;48.614;8.880;2024-03-02T02:37:17;3.50;99.90
12634;DHT22;6382;48.614;8.880;2024-03-02T02:39:43;3.40;99.90
12634;DHT22;6382;48.614;8.880;2024-03-02T02:42:08;3.40;99.90
12634;DHT22;6382;48.614;8.880;2024-03-02T02:44:34;3.30;99.90
12634;DHT22;6382;48.614;8.880;2024-03-02T02:46:59;3.30;99.90
12634;DHT22;6382;48.614;8.880;2024-03-02T02:49:25;3.20;99.90
12634;DHT22;6382;48.614;8.880;2024-03-02T02:51:50;3.20;99.90
12634;DHT22;6382;48.614;8.880;2024-03-02T02:54:16;3.30;99.90
12634;DHT22;6382;48.614;8.880;2024-03-02T02:56:41;3.30;99.90
12634;DHT22;6382;48.614;8.880;2024-03-02T02:59:07;3.40;99.90
12634;DHT22;6382;48.614;8.880;2024-03-02T03:01:32;3.40;99.90
12634;DHT22;6382;48.614;8.880;2024-03-02T03:03:58;3.60;99.90
12634;DHT22;6382;48.614;8.880;2024-03-02T03:06:23;3.40;99.90
12634;DHT22;6382;48.614;8.880;2024-03-02T03:08:49;3.30;99.90
12634;DHT22;6382;48.614;8.880;2024-03-02T03:11:14;3.30;99.90
12634;DHT22;6382;48.614;8.880;2024-03-02T03:13:40;3.20;99.90
12634;DHT22;6382;48.614;8.880;2024-03-02T03:16:05;3.20;99.90
12634;DHT22;6382;48.614;8.880;2024-03-02T03:18:31;3.20;99.90
12634;DHT22;6382;48.614;8.880;2024-03-02T03:20:56;3.20;99.90
12634;DHT22;6382;48.614;8.880;2024-03-02T03:23:22;3.20;99.90
12634;DHT22;6382;48.614;8.880;2024-03-02T03:25:47;3.10;99.90
12634;DHT22;6382;48.614;8.880;2024-03-02T03:28:13;3.10;99.90
12634;DHT22;6382;48.614;8.880;2024-03-02T03:30:38;3.00;99.90
12634;DHT22;6382;48.614;8.880;2024-03-02T03:33:04;3.00;99.90
12634;DHT22;6382;48.614;8.880;2024-03-02T03:35:33;2.90;99.90
12634;DHT22;6382;48.614;8.880;2024-03-02T03:37:59;2.90;99.90
12634;DHT22;6382;48.614;8.880;2024-03-02T03:40:24;2.90;99.90
12634;DHT22;6382;48.614;8.880;2024-03-02T03:42:50;3.00;99.90
12634;DHT22;6382;48.614;8.880;2024-03-02T03:45:16;3.00;99.90
12634;DHT22;6382;48.614;8.880;2024-03-02T03:47:41;3.00;99.90
12634;DHT22;6382;48.614;8.880;2024-03-02T03:50:06;3.00;99.90
12634;DHT22;6382;48.614;8.880;2024-03-02T03:52:32;3.00;99.90
12634;DHT22;6382;48.614;8.880;2024-03-02T03:54:58;3.00;99.90
12634;DHT22;6382;48.614;8.880;2024-03-02T03:57:24;3.00;99.90
12634;DHT22;6382;48.614;8.880;2024-03-02T03:59:49;2.90;99.90
12634;DHT22;6382;48.614;8.880;2024-03-02T04:02:15;2.80;99.90
12634;DHT22;6382;48.614;8.880;2024-03-02T04:04:41;2.80;99.90
12634;DHT22;6382;48.614;8.880;2024-03-02T04:07:06;2.70;99.90
12634;DHT22;6382;48.614;8.880;2024-03-02T04:09:32;2.70;99.90
12634;DHT22;6382;48.614;8.880;2024-03-02T04:11:58;2.60;99.90
12634;DHT22;6382;48.614;8.880;2024-03-02T04:14:23;2.60;99.90
12634;DHT22;6382;48.614;8.880;2024-03-02T04:16:48;2.60;99.90
12634;DHT22;6382;48.614;8.880;2024-03-02T04:19:14;2.60;99.90
12634;DHT22;6382;48.614;8.880;2024-03-02T04:21:39;2.60;99.90
12634;DHT22;6382;48.614;8.880;2024-03-02T04:24:05;2.60;99.90
12634;DHT22;6382;48.614;8.880;2024-03-02T04:26:31;2.60;99.90
12634;DHT22;6382;48.614;8.880;2024-03-02T04:28:56;2.60;99.90
12634;DHT22;6382;48.614;8.880;2024-03-02T04:31:21;2.70;99.90
12634;DHT22;6382;48.614;8.880;2024-03-02T04:33:47;3.20;99.90
12634;DHT22;6382;48.614;8.880;2024-03-02T04:36:12;2.70;99.90
12634;DHT22;6382;48.614;8.880;2024-03-02T04:38:38;2.70;99.90
12634;DHT22;6382;48.614;8.880;2024-03-02T04:41:04;2.80;99.90
12634;DHT22;6382;48.614;8.880;2024-03-02T04:43:30;2.70;99.90
12634;DHT22;6382;48.614;8.880;2024-03-02T04:45:57;2.70;99.90
12634;DHT22;6382;48.614;8.880;2024-03-02T04:48:23;2.70;99.90
12634;DHT22;6382;48.614;8.880;2024-03-02T04:50:49;2.70;99.90
12634;DHT22;6382;48.614;8.880;2024-03-02T04:53:14;2.80;99.90
12634;DHT22;6382;48.614;8.880;2024-03-02T04:55:40;2.80;99.90
12634;DHT22;6382;48.614;8.880;2024-03-02T04:58:05;2.70;99.90
12634;DHT22;6382;48.614;8.880;2024-03-02T05:00:31;2.70;99.90
12634;DHT22;6382;48.614;8.880;2024-03-02T05:02:57;2.60;99.90
12634;DHT22;6382;48.614;8.880;2024-03-02T05:05:22;2.50;99.90
12634;DHT22;6382;48.614;8.880;2024-03-02T05:07:48;2.50;99.90
12634;DHT22;6382;48.614;8.880;2024-03-02T05:10:13;2.60;99.90
12634;DHT22;6382;48.614;8.880;2024-03-02T05:12:39;2.50;99.90
12634;DHT22;6382;48.614;8.880;2024-03-02T05:15:08;2.60;99.90
12634;DHT22;6382;48.614;8.880;2024-03-02T05:17:35;2.60;99.90
12634;DHT22;6382;48.614;8.880;2024-03-02T05:20:01;2.60;99.90
12634;DHT22;6382;48.614;8.880;2024-03-02T05:22:26;2.60;99.90
12634;DHT22;6382;48.614;8.880;2024-03-02T05:24:52;2.60;99.90
12634;DHT22;6382;48.614;8.880;2024-03-02T05:27:17;2.60;99.90
12634;DHT22;6382;48.614;8.880;2024-03-02T05:29:43;2.90;99.90
12634;DHT22;6382;48.614;8.880;2024-03-02T05:32:08;2.60;99.90
12634;DHT22;6382;48.614;8.880;2024-03-02T05:34:34;2.60;99.90
12634;DHT22;6382;48.614;8.880;2024-03-02T05:37:01;2.60;99.90
12634;DHT22;6382;48.614;8.880;2024-03-02T05:39:26;2.70;99.90
12634;DHT22;6382;48.614;8.880;2024-03-02T05:41:52;2.70;99.90
12634;DHT22;6382;48.614;8.880;2024-03-02T05:44:17;2.60;99.90
12634;DHT22;6382;48.614;8.880;2024-03-02T05:46:43;2.50;99.90
12634;DHT22;6382;48.614;8.880;2024-03-02T05:49:09;2.40;99.90
12634;DHT22;6382;48.614;8.880;2024-03-02T05:51:35;2.40;99.90
12634;DHT22;6382;48.614;8.880;2024-03-02T05:54:00;2.50;99.90
12634;DHT22;6382;48.614;8.880;2024-03-02T05:56:26;2.50;99.90
12634;DHT22;6382;48.614;8.880;2024-03-02T05:58:51;2.60;99.90
12634;DHT22;6382;48.614;8.880;2024-03-02T06:01:17;2.50;99.90
12634;DHT22;6382;48.614;8.880;2024-03-02T06:03:43;2.40;99.90
12634;DHT22;6382;48.614;8.880;2024-03-02T06:06:09;2.40;99.90
12634;DHT22;6382;48.614;8.880;2024-03-02T06:08:34;2.40;99.90
12634;DHT22;6382;48.614;8.880;2024-03-02T06:11:00;2.40;99.90
12634;DHT22;6382;48.614;8.880;2024-03-02T06:13:26;2.50;99.90
12634;DHT22;6382;48.614;8.880;2024-03-02T06:15:52;2.60;99.90
12634;DHT22;6382;48.614;8.880;2024-03-02T06:18:17;2.70;99.90
12634;DHT22;6382;48.614;8.880;2024-03-02T06:20:43;2.70;99.90
12634;DHT22;6382;48.614;8.880;2024-03-02T06:23:08;2.70;99.90
12634;DHT22;6382;48.614;8.880;2024-03-02T06:25:34;2.60;99.90
12634;DHT22;6382;48.614;8.880;2024-03-02T06:27:59;2.60;99.90
12634;DHT22;6382;48.614;8.880;2024-03-02T06:30:25;2.50;99.90
12634;DHT22;6382;48.614;8.880;2024-03-02T06:32:50;2.50;99.90
12634;DHT22;6382;48.614;8.880;2024-03-02T06:35:16;3.20;99.90
12634;DHT22;6382;48.614;8.880;2024-03-02T06:37:41;3.00;99.90
12634;DHT22;6382;48.614;8.880;2024-03-02T06:40:07;2.50;99.90
12634;DHT22;6382;48.614;8.880;2024-03-02T06:42:33;2.60;99.90
12634;DHT22;6382;48.614;8.880;2024-03-02T06:44:59;2.60;99.90
12634;DHT22;6382;48.614;8.880;2024-03-02T06:47:25;2.70;99.90
12634;DHT22;6382;48.614;8.880;2024-03-02T06:52:17;2.80;99.90
12634;DHT22;6382;48.614;8.880;2024-03-02T06:54:42;2.80;99.90
12634;DHT22;6382;48.614;8.880;2024-03-02T06:57:07;2.90;99.90
12634;DHT22;6382;48.614;8.880;2024-03-02T06:59:33;3.00;99.90
12634;DHT22;6382;48.614;8.880;2024-03-02T07:01:59;3.00;99.90
12634;DHT22;6382;48.614;8.880;2024-03-02T07:04:24;3.10;99.90
12634;DHT22;6382;48.614;8.880;2024-03-02T07:06:50;3.20;99.90
12634;DHT22;6382;48.614;8.880;2024-03-02T07:09:16;3.20;99.90
12634;DHT22;6382;48.614;8.880;2024-03-02T07:11:42;3.20;99.90
12634;DHT22;6382;48.614;8.880;2024-03-02T07:14:07;3.30;99.90
12634;DHT22;6382;48.614;8.880;2024-03-02T07:16:33;3.30;99.90
12634;DHT22;6382;48.614;8.880;2024-03-02T07:18:59;3.30;99.90
12634;DHT22;6382;48.614;8.880;2024-03-02T07:21:27;3.30;99.90
12634;DHT22;6382;48.614;8.880;2024-03-02T07:23:53;3.30;99.90
12634;DHT22;6382;48.614;8.880;2024-03-02T07:26:18;3.30;99.90
12634;DHT22;6382;48.614;8.880;2024-03-02T07:28:45;3.30;99.90
12634;DHT22;6382;48.614;8.880;2024-03-02T07:31:10;3.20;99.90
12634;DHT22;6382;48.614;8.880;2024-03-02T07:33:36;3.00;99.90
12634;DHT22;6382;48.614;8.880;2024-03-02T07:36:01;2.90;99.90
12634;DHT22;6382;48.614;8.880;2024-03-02T07:38:28;3.00;99.90
12634;DHT22;6382;48.614;8.880;2024-03-02T07:40:54;2.90;99.90
12634;DHT22;6382;48.614;8.880;2024-03-02T07:43:19;2.90;99.90
12634;DHT22;6382;48.614;8.880;2024-03-02T07:45:45;2.90;99.90
12634;DHT22;6382;48.614;8.880;2024-03-02T07:48:11;3.00;99.90
12634;DHT22;6382;48.614;8.880;2024-03-02T07:50:36;3.00;99.90
12634;DHT22;6382;48.614;8.880;2024-03-02T07:53:02;3.10;99.90
12634;DHT22;6382;48.614;8.880;2024-03-02T07:55:29;3.30;99.90
12634;DHT22;6382;48.614;8.880;2024-03-02T07:57:55;3.40;99.90
12634;DHT22;6382;48.614;8.880;2024-03-02T08:00:20;3.50;99.90
12634;DHT22;6382;48.614;8.880;2024-03-02T08:02:46;3.60;99.90
12634;DHT22;6382;48.614;8.880;2024-03-02T08:05:11;3.70;99.90
12634;DHT22;6382;48.614;8.880;2024-03-02T08:07:37;3.80;99.90
12634;DHT22;6382;48.614;8.880;2024-03-02T08:10:02;3.90;99.90
12634;DHT22;6382;48.614;8.880;2024-03-02T08:12:28;4.00;99.90
12634;DHT22;6382;48.614;8.880;2024-03-02T08:14:53;4.10;99.90
12634;DHT22;6382;48.614;8.880;2024-03-02T08:17:19;4.30;99.90
12634;DHT22;6382;48.614;8.880;2024-03-02T08:19:44;4.40;99.90
12634;DHT22;6382;48.614;8.880;2024-03-02T08:22:10;4.50;99.90
12634;DHT22;6382;48.614;8.880;2024-03-02T08:24:35;4.60;99.90
12634;DHT22;6382;48.614;8.880;2024-03-02T08:27:01;4.70;99.90
12634;DHT22;6382;48.614;8.880;2024-03-02T08:29:26;4.80;99.90
12634;DHT22;6382;48.614;8.880;2024-03-02T08:31:53;4.90;99.90
12634;DHT22;6382;48.614;8.880;2024-03-02T08:34:18;5.00;99.90
12634;DHT22;6382;48.614;8.880;2024-03-02T08:36:44;5.10;99.90
12634;DHT22;6382;48.614;8.880;2024-03-02T08:39:09;5.30;99.90
12634;DHT22;6382;48.614;8.880;2024-03-02T08:41:41;5.40;99.90
12634;DHT22;6382;48.614;8.880;2024-03-02T08:44:07;5.50;99.90
12634;DHT22;6382;48.614;8.880;2024-03-02T08:46:33;5.60;99.90
12634;DHT22;6382;48.614;8.880;2024-03-02T08:48:58;5.70;99.90
12634;DHT22;6382;48.614;8.880;2024-03-02T08:51:23;5.80;99.90
12634;DHT22;6382;48.614;8.880;2024-03-02T08:53:49;5.90;99.90
12634;DHT22;6382;48.614;8.880;2024-03-02T08:56:14;6.00;99.90
12634;DHT22;6382;48.614;8.880;2024-03-02T08:58:41;6.10;99.90
12634;DHT22;6382;48.614;8.880;2024-03-02T09:01:06;6.30;99.90
12634;DHT22;6382;48.614;8.880;2024-03-02T09:03:33;6.40;99.90
12634;DHT22;6382;48.614;8.880;2024-03-02T09:06:00;6.50;99.90
12634;DHT22;6382;48.614;8.880;2024-03-02T09:08:26;6.60;99.90
12634;DHT22;6382;48.614;8.880;2024-03-02T09:10:51;6.70;99.90
12634;DHT22;6382;48.614;8.880;2024-03-02T09:13:17;6.80;99.90
12634;DHT22;6382;48.614;8.880;2024-03-02T09:15:42;6.90;99.90
12634;DHT22;6382;48.614;8.880;2024-03-02T09:18:09;6.90;99.90
12634;DHT22;6382;48.614;8.880;2024-03-02T09:20:35;7.00;99.90
12634;DHT22;6382;48.614;8.880;2024-03-02T09:23:00;7.10;99.90
12634;DHT22;6382;48.614;8.880;2024-03-02T09:25:26;7.20;99.90
12634;DHT22;6382;48.614;8.880;2024-03-02T09:27:51;7.90;99.90
12634;DHT22;6382;48.614;8.880;2024-03-02T09:30:17;7.30;99.90
12634;DHT22;6382;48.614;8.880;2024-03-02T09:32:42;7.40;99.90
12634;DHT22;6382;48.614;8.880;2024-03-02T09:35:08;7.40;99.90
12634;DHT22;6382;48.614;8.880;2024-03-02T09:37:34;7.50;99.90
12634;DHT22;6382;48.614;8.880;2024-03-02T09:40:00;7.60;99.90
12634;DHT22;6382;48.614;8.880;2024-03-02T09:42:25;7.70;99.90
12634;DHT22;6382;48.614;8.880;2024-03-02T09:44:51;7.70;99.90
12634;DHT22;6382;48.614;8.880;2024-03-02T09:47:17;7.80;99.90
12634;DHT22;6382;48.614;8.880;2024-03-02T09:49:42;7.90;99.90
12634;DHT22;6382;48.614;8.880;2024-03-02T09:52:09;8.00;99.90
12634;DHT22;6382;48.614;8.880;2024-03-02T09:54:35;8.10;99.90
12634;DHT22;6382;48.614;8.880;2024-03-02T09:57:00;8.10;99.90
12634;DHT22;6382;48.614;8.880;2024-03-02T09:59:27;8.20;99.90
12634;DHT22;6382;48.614;8.880;2024-03-02T10:02:01;8.20;99.90
12634;DHT22;6382;48.614;8.880;2024-03-02T10:04:27;8.30;99.90
12634;DHT22;6382;48.614;8.880;2024-03-02T10:09:37;8.50;99.90
12634;DHT22;6382;48.614;8.880;2024-03-02T10:12:05;8.60;99.90
12634;DHT22;6382;48.614;8.880;2024-03-02T10:14:31;8.70;99.90
12634;DHT22;6382;48.614;8.880;2024-03-02T10:17:01;8.80;99.90
12634;DHT22;6382;48.614;8.880;2024-03-02T10:19:27;8.90;99.90
12634;DHT22;6382;48.614;8.880;2024-03-02T10:21:57;8.90;99.90
12634;DHT22;6382;48.614;8.880;2024-03-02T10:24:23;9.10;99.90
12634;DHT22;6382;48.614;8.880;2024-03-02T10:26:49;9.10;99.90
12634;DHT22;6382;48.614;8.880;2024-03-02T10:29:14;9.10;99.90
12634;DHT22;6382;48.614;8.880;2024-03-02T10:31:41;9.20;99.90
12634;DHT22;6382;48.614;8.880;2024-03-02T10:34:08;9.30;99.90
12634;DHT22;6382;48.614;8.880;2024-03-02T10:36:34;9.40;99.90
12634;DHT22;6382;48.614;8.880;2024-03-02T10:39:05;9.50;99.90
12634;DHT22;6382;48.614;8.880;2024-03-02T10:41:35;9.60;99.90
12634;DHT22;6382;48.614;8.880;2024-03-02T10:44:07;9.70;99.90
12634;DHT22;6382;48.614;8.880;2024-03-02T10:46:33;9.70;99.90
12634;DHT22;6382;48.614;8.880;2024-03-02T10:48:59;9.80;99.90
12634;DHT22;6382;48.614;8.880;2024-03-02T10:51:26;9.80;99.90
12634;DHT22;6382;48.614;8.880;2024-03-02T10:53:53;9.90;99.90
12634;DHT22;6382;48.614;8.880;2024-03-02T10:56:21;11.10;99.90
12634;DHT22;6382;48.614;8.880;2024-03-02T10:58:49;10.10;99.90
12634;DHT22;6382;48.614;8.880;2024-03-02T11:01:16;10.20;99.90
12634;DHT22;6382;48.614;8.880;2024-03-02T11:03:42;10.30;99.90
12634;DHT22;6382;48.614;8.880;2024-03-02T11:06:08;10.40;99.90
12634;DHT22;6382;48.614;8.880;2024-03-02T11:08:34;10.50;99.90
12634;DHT22;6382;48.614;8.880;2024-03-02T11:11:06;10.60;99.90
12634;DHT22;6382;48.614;8.880;2024-03-02T11:13:32;10.70;99.90
12634;DHT22;6382;48.614;8.880;2024-03-02T11:16:23;10.90;99.90
12634;DHT22;6382;48.614;8.880;2024-03-02T11:18:44;11.00;99.90
12634;DHT22;6382;48.614;8.880;2024-03-02T11:21:10;11.10;99.90
12634;DHT22;6382;48.614;8.880;2024-03-02T11:23:35;11.20;99.90
12634;DHT22;6382;48.614;8.880;2024-03-02T11:26:17;11.20;99.90
12634;DHT22;6382;48.614;8.880;2024-03-02T11:28:43;11.30;99.90
12634;DHT22;6382;48.614;8.880;2024-03-02T11:31:08;11.40;99.90
12634;DHT22;6382;48.614;8.880;2024-03-02T11:33:34;11.40;99.90
12634;DHT22;6382;48.614;8.880;2024-03-02T11:35:59;11.40;99.90
12634;DHT22;6382;48.614;8.880;2024-03-02T11:38:27;11.40;99.90
12634;DHT22;6382;48.614;8.880;2024-03-02T11:40:53;11.40;99.90
12634;DHT22;6382;48.614;8.880;2024-03-02T11:43:19;11.50;99.90
12634;DHT22;6382;48.614;8.880;2024-03-02T11:45:44;11.70;99.90
12634;DHT22;6382;48.614;8.880;2024-03-02T11:48:12;11.70;99.90
12634;DHT22;6382;48.614;8.880;2024-03-02T11:50:42;12.20;99.90
12634;DHT22;6382;48.614;8.880;2024-03-02T11:53:11;11.80;99.90
12634;DHT22;6382;48.614;8.880;2024-03-02T11:55:38;11.90;99.90
12634;DHT22;6382;48.614;8.880;2024-03-02T11:58:05;11.90;99.90
12634;DHT22;6382;48.614;8.880;2024-03-02T12:00:30;12.00;99.90
12634;DHT22;6382;48.614;8.880;2024-03-02T12:02:59;12.10;99.90
12634;DHT22;6382;48.614;8.880;2024-03-02T12:05:26;12.20;99.90
12634;DHT22;6382;48.614;8.880;2024-03-02T12:07:55;12.30;99.90
12634;DHT22;6382;48.614;8.880;2024-03-02T12:10:21;12.40;99.90
12634;DHT22;6382;48.614;8.880;2024-03-02T12:12:46;12.40;99.90
12634;DHT22;6382;48.614;8.880;2024-03-02T12:15:11;12.40;99.90
12634;DHT22;6382;48.614;8.880;2024-03-02T12:17:37;12.70;99.90
12634;DHT22;6382;48.614;8.880;2024-03-02T12:20:04;12.50;99.90
12634;DHT22;6382;48.614;8.880;2024-03-02T12:22:30;13.60;99.90
12634;DHT22;6382;48.614;8.880;2024-03-02T12:24:55;12.50;99.90
12634;DHT22;6382;48.614;8.880;2024-03-02T12:27:21;12.90;99.90
12634;DHT22;6382;48.614;8.880;2024-03-02T12:29:47;12.40;99.90
12634;DHT22;6382;48.614;8.880;2024-03-02T12:32:13;12.40;99.90
12634;DHT22;6382;48.614;8.880;2024-03-02T12:34:39;12.40;99.90
12634;DHT22;6382;48.614;8.880;2024-03-02T12:37:05;12.30;99.90
12634;DHT22;6382;48.614;8.880;2024-03-02T12:39:30;12.30;99.90
12634;DHT22;6382;48.614;8.880;2024-03-02T12:41:58;12.30;99.90
12634;DHT22;6382;48.614;8.880;2024-03-02T12:44:23;12.40;99.90
12634;DHT22;6382;48.614;8.880;2024-03-02T12:46:49;14.00;99.90
12634;DHT22;6382;48.614;8.880;2024-03-02T12:49:14;12.30;99.90
12634;DHT22;6382;48.614;8.880;2024-03-02T12:51:43;12.30;99.90
12634;DHT22;6382;48.614;8.880;2024-03-02T12:54:10;12.30;99.90
12634;DHT22;6382;48.614;8.880;2024-03-02T12:56:36;12.10;99.90
12634;DHT22;6382;48.614;8.880;2024-03-02T12:59:03;12.10;99.90
12634;DHT22;6382;48.614;8.880;2024-03-02T13:01:28;12.10;99.90
12634;DHT22;6382;48.614;8.880;2024-03-02T13:03:54;12.00;99.90
12634;DHT22;6382;48.614;8.880;2024-03-02T13:06:21;12.00;99.90
12634;DHT22;6382;48.614;8.880;2024-03-02T13:08:46;11.90;99.90
12634;DHT22;6382;48.614;8.880;2024-03-02T13:11:12;11.90;99.90
12634;DHT22;6382;48.614;8.880;2024-03-02T13:13:38;11.80;99.90
12634;DHT22;6382;48.614;8.880;2024-03-02T13:16:05;11.80;99.90
12634;DHT22;6382;48.614;8.880;2024-03-02T13:18:33;11.70;99.90
12634;DHT22;6382;48.614;8.880;2024-03-02T13:20:58;11.70;99.90
12634;DHT22;6382;48.614;8.880;2024-03-02T13:23:24;11.70;99.90
12634;DHT22;6382;48.614;8.880;2024-03-02T13:25:49;11.70;99.90
12634;DHT22;6382;48.614;8.880;2024-03-02T13:28:15;11.80;99.90
12634;DHT22;6382;48.614;8.880;2024-03-02T13:30:40;12.80;99.90
12634;DHT22;6382;48.614;8.880;2024-03-02T13:33:06;11.80;99.90
12634;DHT22;6382;48.614;8.880;2024-03-02T13:35:31;11.90;99.90
12634;DHT22;6382;48.614;8.880;2024-03-02T13:37:57;11.90;99.90
12634;DHT22;6382;48.614;8.880;2024-03-02T13:40:22;12.00;99.90
12634;DHT22;6382;48.614;8.880;2024-03-02T13:42:49;12.90;99.90
12634;DHT22;6382;48.614;8.880;2024-03-02T13:45:16;12.20;99.90
12634;DHT22;6382;48.614;8.880;2024-03-02T13:47:42;12.40;99.90
12634;DHT22;6382;48.614;8.880;2024-03-02T13:50:08;12.50;99.90
12634;DHT22;6382;48.614;8.880;2024-03-02T13:52:33;12.40;99.90
12634;DHT22;6382;48.614;8.880;2024-03-02T13:54:59;12.60;99.90
12634;DHT22;6382;48.614;8.880;2024-03-02T13:57:24;12.50;99.90
12634;DHT22;6382;48.614;8.880;2024-03-02T13:59:50;12.50;99.90
12634;DHT22;6382;48.614;8.880;2024-03-02T14:02:16;12.60;99.90
12634;DHT22;6382;48.614;8.880;2024-03-02T14:04:42;12.60;99.90
12634;DHT22;6382;48.614;8.880;2024-03-02T14:07:07;12.60;99.90
12634;DHT22;6382;48.614;8.880;2024-03-02T14:09:33;12.80;99.90
12634;DHT22;6382;48.614;8.880;2024-03-02T14:11:58;12.60;99.90
12634;DHT22;6382;48.614;8.880;2024-03-02T14:14:27;13.00;99.90
12634;DHT22;6382;48.614;8.880;2024-03-02T14:16:53;13.70;99.90
12634;DHT22;6382;48.614;8.880;2024-03-02T14:19:19;12.70;99.90
12634;DHT22;6382;48.614;8.880;2024-03-02T14:21:45;12.70;99.90
12634;DHT22;6382;48.614;8.880;2024-03-02T14:24:11;12.80;99.90
12634;DHT22;6382;48.614;8.880;2024-03-02T14:26:36;12.90;99.90
12634;DHT22;6382;48.614;8.880;2024-03-02T14:29:02;13.50;99.90
12634;DHT22;6382;48.614;8.880;2024-03-02T14:31:28;13.00;99.90
12634;DHT22;6382;48.614;8.880;2024-03-02T14:33:54;12.90;99.90
12634;DHT22;6382;48.614;8.880;2024-03-02T14:36:19;12.90;99.90
12634;DHT22;6382;48.614;8.880;2024-03-02T14:38:45;12.90;99.90
12634;DHT22;6382;48.614;8.880;2024-03-02T14:41:11;12.80;99.90
12634;DHT22;6382;48.614;8.880;2024-03-02T14:43:36;12.90;99.90
12634;DHT22;6382;48.614;8.880;2024-03-02T14:46:03;13.50;99.90
12634;DHT22;6382;48.614;8.880;2024-03-02T14:48:28;12.90;99.90
12634;DHT22;6382;48.614;8.880;2024-03-02T14:50:54;13.10;99.90
12634;DHT22;6382;48.614;8.880;2024-03-02T14:53:19;13.10;99.90
12634;DHT22;6382;48.614;8.880;2024-03-02T14:55:45;13.10;99.90
12634;DHT22;6382;48.614;8.880;2024-03-02T14:58:10;13.00;99.90
12634;DHT22;6382;48.614;8.880;2024-03-02T15:00:35;13.80;99.90
12634;DHT22;6382;48.614;8.880;2024-03-02T15:03:01;13.30;99.90
12634;DHT22;6382;48.614;8.880;2024-03-02T15:05:27;12.80;99.90
12634;DHT22;6382;48.614;8.880;2024-03-02T15:07:52;13.60;99.90
12634;DHT22;6382;48.614;8.880;2024-03-02T15:10:18;12.80;99.90
12634;DHT22;6382;48.614;8.880;2024-03-02T15:12:44;12.80;99.90
12634;DHT22;6382;48.614;8.880;2024-03-02T15:15:09;12.70;99.90
12634;DHT22;6382;48.614;8.880;2024-03-02T15:17:36;12.70;99.90
12634;DHT22;6382;48.614;8.880;2024-03-02T15:20:02;12.70;99.90
12634;DHT22;6382;48.614;8.880;2024-03-02T15:22:29;12.90;99.90
12634;DHT22;6382;48.614;8.880;2024-03-02T15:24:55;12.80;99.90
12634;DHT22;6382;48.614;8.880;2024-03-02T15:27:20;12.80;99.90
12634;DHT22;6382;48.614;8.880;2024-03-02T15:29:46;13.00;99.90
12634;DHT22;6382;48.614;8.880;2024-03-02T15:32:13;12.80;99.90
12634;DHT22;6382;48.614;8.880;2024-03-02T15:34:38;12.80;99.90
12634;DHT22;6382;48.614;8.880;2024-03-02T15:37:04;12.80;99.90
12634;DHT22;6382;48.614;8.880;2024-03-02T15:39:30;12.80;99.90
12634;DHT22;6382;48.614;8.880;2024-03-02T15:41:55;12.90;99.90
12634;DHT22;6382;48.614;8.880;2024-03-02T15:44:21;12.80;99.90
12634;DHT22;6382;48.614;8.880;2024-03-02T15:46:46;12.80;99.90
12634;DHT22;6382;48.614;8.880;2024-03-02T15:49:11;12.80;99.90
12634;DHT22;6382;48.614;8.880;2024-03-02T15:51:37;12.70;99.90
12634;DHT22;6382;48.614;8.880;2024-03-02T15:54:06;12.70;99.90
12634;DHT22;6382;48.614;8.880;2024-03-02T15:56:32;12.70;99.90